createdAt,value
2018-11-28T00:00:32.674Z,19.10
2018-11-28T00:03:02.962Z,26.70
2018-11-28T00:05:31.917Z,18.80
2018-11-28T00:08:00.760Z,16.90
2018-11-28T00:10:29.957Z,16.93
2018-11-28T00:12:58.849Z,21.63
2018-11-28T00:15:27.834Z,16.03
2018-11-28T00:17:57.060Z,20.63
2018-11-28T00:20:25.900Z,17.63
2018-11-28T00:22:55.089Z,16.33
2018-11-28T00:25:23.967Z,18.13
2018-11-28T00:27:52.927Z,18.17
2018-11-28T00:30:23.949Z,18.53
2018-11-28T00:32:52.831Z,19.20
2018-11-28T00:35:25.359Z,17.27
2018-11-28T00:37:54.175Z,20.80
2018-11-28T00:40:24.010Z,24.17
2018-11-28T00:42:53.051Z,19.27
2018-11-28T00:45:24.055Z,29.90
2018-11-28T00:47:53.269Z,19.37
2018-11-28T00:50:25.676Z,17.40
2018-11-28T00:52:54.646Z,18.17
2018-11-28T00:55:23.500Z,16.70
2018-11-28T00:57:52.650Z,17.30
2018-11-28T01:00:27.235Z,17.47
2018-11-28T01:02:56.136Z,17.47
2018-11-28T01:05:25.026Z,16.73
2018-11-28T01:07:54.941Z,16.97
2018-11-28T01:10:24.996Z,19.73
2018-11-28T01:12:54.491Z,18.10
2018-11-28T01:15:23.751Z,19.27
2018-11-28T01:17:52.892Z,18.70
2018-11-28T01:20:23.333Z,16.70
2018-11-28T01:22:52.139Z,19.83
2018-11-28T01:25:21.974Z,25.93
2018-11-28T01:27:51.619Z,20.60
2018-11-28T01:30:21.797Z,19.83
2018-11-28T01:32:51.053Z,18.97
2018-11-28T01:35:20.742Z,25.07
2018-11-28T01:37:49.646Z,22.27
2018-11-28T01:40:20.737Z,22.57
2018-11-28T01:42:49.793Z,27.53
2018-11-28T01:45:22.011Z,24.50
2018-11-28T01:47:50.866Z,25.63
2018-11-28T01:50:20.742Z,23.33
2018-11-28T01:52:49.600Z,24.40
2018-11-28T01:55:19.998Z,29.43
2018-11-28T01:57:48.996Z,23.97
2018-11-28T02:00:20.315Z,29.37
2018-11-28T02:02:57.958Z,22.83
2018-11-28T02:05:27.138Z,25.30
2018-11-28T02:07:56.075Z,27.40
2018-11-28T02:10:24.936Z,24.33
2018-11-28T02:12:53.595Z,29.47
2018-11-28T02:15:25.971Z,26.77
2018-11-28T02:17:55.224Z,27.27
2018-11-28T02:20:24.155Z,27.63
2018-11-28T02:22:53.345Z,26.03
2018-11-28T02:25:22.301Z,28.53
2018-11-28T02:27:51.307Z,26.10
2018-11-28T02:30:20.861Z,25.57
2018-11-28T02:32:50.637Z,35.80
2018-11-28T02:35:20.007Z,23.60
2018-11-28T02:37:49.789Z,29.90
2018-11-28T02:40:19.425Z,33.30
2018-11-28T02:42:49.223Z,26.00
2018-11-28T02:45:18.986Z,28.20
2018-11-28T02:47:48.236Z,26.80
2018-11-28T02:50:17.148Z,29.43
2018-11-28T02:52:46.367Z,22.53
2018-11-28T02:55:16.171Z,28.13
2018-11-28T02:57:46.290Z,26.10
2018-11-28T03:00:23.834Z,35.13
2018-11-28T03:02:52.829Z,26.47
2018-11-28T03:05:21.977Z,29.90
2018-11-28T03:07:50.868Z,32.33
2018-11-28T03:10:21.173Z,33.03
2018-11-28T03:12:50.257Z,26.20
2018-11-28T03:15:38.105Z,30.27
2018-11-28T03:18:08.332Z,29.93
2018-11-28T03:20:37.225Z,28.50
2018-11-28T03:23:06.665Z,27.23
2018-11-28T03:25:35.825Z,32.67
2018-11-28T03:28:05.028Z,30.23
2018-11-28T03:30:33.934Z,27.20
2018-11-28T03:33:02.889Z,29.20
2018-11-28T03:35:31.735Z,31.00
2018-11-28T03:38:00.716Z,31.00
2018-11-28T03:40:29.551Z,26.27
2018-11-28T03:42:58.692Z,28.67
2018-11-28T03:45:27.503Z,28.70
2018-11-28T03:47:56.401Z,23.67
2018-11-28T03:50:25.655Z,25.90
2018-11-28T03:52:54.551Z,34.97
2018-11-28T03:55:23.382Z,25.37
2018-11-28T03:57:52.528Z,25.50
2018-11-28T04:00:22.223Z,30.67
2018-11-28T04:02:51.418Z,20.60
2018-11-28T04:05:20.277Z,23.50
2018-11-28T04:07:49.315Z,25.03
2018-11-28T04:10:18.571Z,27.87
2018-11-28T04:12:47.450Z,25.80
2018-11-28T04:15:19.292Z,22.03
2018-11-28T04:17:48.257Z,24.40
2018-11-28T04:20:18.049Z,32.17
2018-11-28T04:22:46.881Z,37.40
2018-11-28T04:25:17.236Z,23.07
2018-11-28T04:27:46.238Z,24.30
2018-11-28T04:30:23.050Z,25.53
2018-11-28T04:32:52.711Z,21.80
2018-11-28T04:35:21.600Z,23.30
2018-11-28T04:37:50.484Z,23.57
2018-11-28T04:40:20.255Z,24.30
2018-11-28T04:42:49.605Z,23.80
2018-11-28T04:45:20.005Z,25.43
2018-11-28T04:47:48.956Z,27.07
2018-11-28T04:50:17.874Z,24.10
2018-11-28T04:52:46.999Z,21.50
2018-11-28T05:02:14.790Z,22.93
2018-11-28T05:04:43.682Z,26.53
2018-11-28T05:07:44.080Z,27.67
2018-11-28T05:10:17.507Z,25.90
2018-11-28T05:12:46.563Z,27.53
2018-11-28T05:15:16.515Z,31.03
2018-11-28T05:17:47.373Z,28.90
2018-11-28T05:20:17.332Z,30.17
2018-11-28T05:22:46.198Z,38.67
2018-11-28T05:25:16.370Z,35.60
2018-11-28T05:27:45.481Z,37.63
2018-11-28T05:30:16.475Z,27.80
2018-11-28T05:32:45.316Z,35.00
2018-11-28T05:35:36.917Z,31.10
2018-11-28T05:38:13.386Z,30.33
2018-11-28T05:40:43.378Z,33.33
2018-11-28T05:43:12.341Z,30.93
2018-11-28T05:45:41.711Z,30.97
2018-11-28T05:48:10.610Z,33.83
2018-11-28T05:50:39.884Z,29.83
2018-11-28T05:53:08.773Z,33.33
2018-11-28T05:55:37.928Z,35.10
2018-11-28T05:58:07.121Z,35.43
2018-11-28T06:00:41.074Z,31.50
2018-11-28T06:03:11.231Z,31.57
2018-11-28T06:05:41.221Z,31.37
2018-11-28T06:08:10.149Z,29.57
2018-11-28T06:10:39.195Z,41.87
2018-11-28T06:13:08.138Z,34.87
2018-11-28T06:15:37.620Z,43.00
2018-11-28T06:18:07.933Z,40.43
2018-11-28T06:20:36.994Z,38.63
2018-11-28T06:23:06.039Z,32.97
2018-11-28T06:25:35.044Z,34.23
2018-11-28T06:28:03.937Z,39.00
2018-11-28T06:30:32.835Z,37.37
2018-11-28T06:33:01.738Z,35.97
2018-11-28T06:35:30.866Z,56.57
2018-11-28T06:37:59.880Z,37.33
2018-11-28T06:40:28.887Z,37.73
2018-11-28T06:42:57.956Z,36.10
2018-11-28T06:45:26.801Z,29.90
2018-11-28T06:47:55.988Z,33.63
2018-11-28T06:50:24.997Z,36.10
2018-11-28T06:52:54.016Z,35.03
2018-11-28T06:55:23.490Z,34.57
2018-11-28T06:57:52.317Z,38.90
2018-11-28T07:00:22.865Z,37.37
2018-11-28T07:02:52.944Z,41.83
2018-11-28T07:05:22.333Z,47.00
2018-11-28T07:07:51.380Z,38.73
2018-11-28T07:10:21.216Z,40.40
2018-11-28T07:12:50.370Z,38.00
2018-11-28T07:15:20.609Z,38.07
2018-11-28T07:17:49.674Z,33.10
2018-11-28T07:20:18.931Z,39.60
2018-11-28T07:22:47.808Z,41.43
2018-11-28T07:25:18.606Z,37.47
2018-11-28T07:27:48.379Z,39.90
2018-11-28T07:30:21.123Z,43.10
2018-11-28T07:32:51.693Z,62.87
2018-11-28T07:35:20.625Z,52.57
2018-11-28T07:37:52.586Z,45.03
2018-11-28T07:40:24.767Z,39.70
2018-11-28T07:43:05.488Z,42.93
2018-11-28T07:45:34.443Z,43.43
2018-11-28T07:48:03.725Z,37.63
2018-11-28T07:50:32.632Z,48.40
2018-11-28T07:53:01.812Z,36.93
2018-11-28T07:55:30.727Z,47.93
2018-11-28T07:57:59.960Z,44.77
2018-11-28T08:00:29.289Z,51.30
2018-11-28T08:02:58.400Z,38.10
2018-11-28T08:05:27.422Z,40.00
2018-11-28T08:07:56.979Z,47.90
2018-11-28T08:10:26.890Z,43.20
2018-11-28T08:12:57.713Z,39.50
2018-11-28T08:15:27.022Z,38.47
2018-11-28T08:17:56.058Z,34.30
2018-11-28T08:20:24.863Z,42.90
2018-11-28T08:22:54.124Z,66.33
2018-11-28T08:25:27.664Z,69.37
2018-11-28T08:27:52.481Z,47.30
2018-11-28T08:30:23.154Z,35.87
2018-11-28T08:32:52.401Z,38.47
2018-11-28T08:35:21.304Z,33.40
2018-11-28T08:37:50.199Z,30.67
2018-11-28T08:40:24.328Z,39.50
2018-11-28T08:42:53.749Z,41.60
2018-11-28T08:45:22.956Z,34.73
2018-11-28T08:47:52.925Z,46.47
2018-11-28T08:50:23.113Z,33.33
2018-11-28T08:52:52.054Z,38.40
2018-11-28T08:55:23.522Z,27.93
2018-11-28T08:57:53.324Z,36.00
2018-11-28T09:00:24.232Z,33.73
2018-11-28T09:02:54.170Z,37.03
2018-11-28T09:05:23.423Z,32.37
2018-11-28T09:07:52.412Z,29.60
2018-11-28T09:10:21.474Z,26.73
2018-11-28T09:12:50.978Z,29.90
2018-11-28T09:15:27.032Z,31.27
2018-11-28T09:17:56.280Z,26.63
2018-11-28T09:20:25.219Z,29.43
2018-11-28T09:22:54.278Z,29.13
2018-11-28T09:25:23.284Z,27.90
2018-11-28T09:27:56.509Z,22.63
2018-11-28T09:30:25.438Z,27.13
2018-11-28T09:32:54.587Z,28.50
2018-11-28T09:35:23.690Z,27.10
2018-11-28T09:37:52.889Z,29.90
2018-11-28T09:40:25.068Z,29.20
2018-11-28T09:42:55.030Z,23.27
2018-11-28T09:45:24.185Z,24.70
2018-11-28T09:47:53.201Z,22.80
2018-11-28T09:50:23.205Z,20.23
2018-11-28T09:52:52.432Z,23.97
2018-11-28T09:55:22.859Z,26.13
2018-11-28T09:57:52.115Z,27.67
2018-11-28T10:00:21.943Z,22.30
2018-11-28T10:02:51.970Z,32.73
2018-11-28T10:05:22.848Z,23.67
2018-11-28T10:07:51.840Z,21.30
2018-11-28T10:10:20.823Z,21.17
2018-11-28T10:12:49.848Z,22.03
2018-11-28T10:15:25.259Z,24.23
2018-11-28T10:17:54.557Z,28.37
2018-11-28T10:20:23.583Z,27.37
2018-11-28T10:22:53.308Z,21.73
2018-11-28T10:25:25.530Z,20.07
2018-11-28T10:28:04.109Z,20.43
2018-11-28T10:30:34.848Z,22.83
2018-11-28T10:33:04.277Z,19.50
2018-11-28T10:35:33.251Z,24.63
2018-11-28T10:38:02.256Z,25.87
2018-11-28T10:40:31.436Z,21.57
2018-11-28T10:43:01.351Z,20.53
2018-11-28T10:45:31.043Z,22.57
2018-11-28T10:48:01.702Z,24.20
2018-11-28T10:50:30.771Z,30.00
2018-11-28T10:52:59.695Z,23.47
2018-11-28T10:55:28.691Z,19.93
2018-11-28T10:57:57.908Z,20.23
2018-11-28T11:00:36.947Z,23.87
2018-11-28T11:03:12.282Z,22.27
2018-11-28T11:05:46.561Z,20.07
2018-11-28T11:08:20.848Z,21.63
2018-11-28T11:10:55.142Z,17.70
2018-11-28T11:13:29.615Z,20.43
2018-11-28T11:15:59.341Z,18.50
2018-11-28T11:18:29.279Z,20.57
2018-11-28T11:20:58.550Z,20.27
2018-11-28T11:23:27.513Z,22.90
2018-11-28T11:25:56.510Z,17.53
2018-11-28T11:28:25.461Z,26.70
2018-11-28T11:30:54.738Z,20.73
2018-11-28T11:33:23.929Z,19.70
2018-11-28T11:35:53.291Z,17.17
2018-11-28T11:38:22.517Z,18.00
2018-11-28T11:40:51.571Z,20.87
2018-11-28T11:43:20.541Z,19.60
2018-11-28T11:45:49.766Z,23.87
2018-11-28T11:48:19.225Z,18.93
2018-11-28T11:50:48.173Z,19.67
2018-11-28T11:53:17.030Z,18.83
2018-11-28T11:55:45.988Z,19.40
2018-11-28T12:05:21.033Z,20.07
2018-11-28T12:07:48.836Z,21.17
2018-11-28T12:10:18.109Z,25.07
2018-11-28T12:12:53.564Z,21.97
2018-11-28T12:15:23.055Z,22.10
2018-11-28T12:17:52.065Z,17.67
2018-11-28T12:20:27.005Z,17.80
2018-11-28T12:22:56.019Z,17.93
2018-11-28T12:25:25.795Z,19.47
2018-11-28T12:27:54.854Z,20.07
2018-11-28T12:30:24.090Z,20.07
2018-11-28T12:32:53.009Z,17.90
2018-11-28T12:35:22.511Z,19.80
2018-11-28T12:37:52.372Z,19.47
2018-11-28T12:40:22.091Z,18.60
2018-11-28T12:42:52.401Z,20.37
2018-11-28T12:45:22.268Z,18.73
2018-11-28T12:47:51.457Z,18.97
2018-11-28T12:50:24.502Z,19.47
2018-11-28T12:52:54.662Z,29.70
2018-11-28T12:55:25.120Z,20.73
2018-11-28T12:57:54.749Z,20.97
2018-11-28T13:00:27.123Z,28.63
2018-11-28T13:02:56.366Z,17.87
2018-11-28T13:05:26.503Z,18.17
2018-11-28T13:07:55.813Z,18.40
2018-11-28T13:10:26.225Z,17.93
2018-11-28T13:12:55.414Z,21.77
2018-11-28T13:15:25.571Z,18.93
2018-11-28T13:17:54.428Z,17.50
2018-11-28T13:20:23.774Z,19.20
2018-11-28T13:22:54.388Z,20.10
2018-11-28T13:25:28.024Z,16.63
2018-11-28T13:27:56.978Z,15.40
2018-11-28T13:30:28.019Z,21.17
2018-11-28T13:32:56.920Z,16.93
2018-11-28T13:35:31.174Z,21.00
2018-11-28T13:38:04.224Z,19.03
2018-11-28T13:40:33.166Z,16.87
2018-11-28T13:43:02.583Z,16.97
2018-11-28T13:45:32.754Z,17.80
2018-11-28T13:48:01.685Z,16.00
2018-11-28T13:50:30.837Z,18.90
2018-11-28T13:53:01.169Z,19.37
2018-11-28T13:55:38.402Z,17.27
2018-11-28T13:58:03.508Z,19.40
2018-11-28T14:00:32.560Z,22.93
2018-11-28T14:03:01.672Z,19.13
2018-11-28T14:05:30.687Z,17.70
2018-11-28T14:07:59.638Z,15.90
2018-11-28T14:10:28.694Z,17.70
2018-11-28T14:12:57.619Z,24.53
2018-11-28T14:15:26.707Z,17.77
2018-11-28T14:17:59.818Z,20.70
2018-11-28T14:20:31.587Z,21.53
2018-11-28T14:23:00.924Z,18.60
2018-11-28T14:25:29.876Z,52.80
2018-11-28T14:27:58.792Z,17.00
2018-11-28T14:30:28.005Z,16.97
2018-11-28T14:32:57.413Z,21.80
2018-11-28T14:35:26.338Z,17.00
2018-11-28T14:37:55.844Z,24.70
2018-11-28T14:40:25.642Z,21.30
2018-11-28T14:42:55.917Z,18.30
2018-11-28T14:45:24.978Z,20.33
2018-11-28T14:47:54.183Z,19.30
2018-11-28T14:50:25.009Z,16.50
2018-11-28T14:52:55.223Z,17.93
2018-11-28T14:55:26.969Z,23.30
2018-11-28T14:57:56.213Z,18.87
2018-11-28T15:00:26.238Z,19.40
2018-11-28T15:02:56.572Z,24.40
2018-11-28T15:05:42.432Z,16.00
2018-11-28T15:08:14.617Z,21.70
2018-11-28T15:10:55.230Z,19.33
2018-11-28T15:13:24.230Z,20.13
2018-11-28T15:15:53.129Z,20.60
2018-11-28T15:18:22.678Z,26.80
2018-11-28T15:20:51.533Z,18.70
2018-11-28T15:23:20.732Z,19.53
2018-11-28T15:25:50.400Z,18.60
2018-11-28T15:28:20.111Z,24.77
2018-11-28T15:30:49.205Z,20.27
2018-11-28T15:33:18.316Z,15.90
2018-11-28T15:35:47.753Z,20.23
2018-11-28T15:38:16.857Z,28.90
2018-11-28T15:40:46.840Z,16.97
2018-11-28T15:43:15.892Z,16.37
2018-11-28T15:45:44.817Z,19.23
2018-11-28T15:48:13.696Z,19.57
2018-11-28T15:50:42.728Z,18.50
2018-11-28T15:53:11.719Z,19.67
2018-11-28T15:55:42.382Z,19.43
2018-11-28T15:58:12.596Z,21.07
2018-11-28T16:00:41.792Z,29.20
2018-11-28T16:03:10.603Z,21.03
2018-11-28T16:05:39.875Z,21.90
2018-11-28T16:08:09.184Z,29.07
2018-11-28T16:10:42.369Z,28.20
2018-11-28T16:13:11.780Z,24.67
2018-11-28T16:15:46.581Z,25.73
2018-11-28T16:18:16.644Z,23.70
2018-11-28T16:20:45.964Z,22.50
2018-11-28T16:23:15.650Z,18.13
2018-11-28T16:25:49.247Z,18.53
2018-11-28T16:28:18.636Z,18.80
2018-11-28T16:30:47.529Z,20.10
2018-11-28T16:33:16.598Z,18.60
2018-11-28T16:35:45.569Z,19.57
2018-11-28T16:38:14.664Z,18.17
2018-11-28T16:40:43.667Z,19.60
2018-11-28T16:43:12.673Z,22.00
2018-11-28T16:45:42.010Z,28.00
2018-11-28T16:48:10.948Z,16.67
2018-11-28T16:50:39.972Z,18.97
2018-11-28T16:53:08.888Z,17.50
2018-11-28T16:55:38.441Z,22.73
2018-11-28T16:58:08.791Z,22.53
2018-11-28T17:00:40.108Z,21.53
2018-11-28T17:03:09.163Z,20.13
2018-11-28T17:05:38.293Z,16.33
2018-11-28T17:08:08.953Z,19.10
2018-11-28T17:10:38.105Z,19.77
2018-11-28T17:13:10.728Z,17.10
2018-11-28T17:15:39.739Z,18.73
2018-11-28T17:18:08.712Z,19.10
2018-11-28T17:20:40.590Z,18.10
2018-11-28T17:23:09.556Z,19.07
2018-11-28T17:25:38.824Z,18.80
2018-11-28T17:28:08.930Z,17.40
2018-11-28T17:30:38.325Z,17.97
2018-11-28T17:33:07.465Z,17.60
2018-11-28T17:35:36.396Z,29.13
2018-11-28T17:38:06.062Z,18.57
2018-11-28T17:40:34.971Z,25.43
2018-11-28T17:43:04.024Z,22.07
2018-11-28T17:45:33.255Z,20.07
2018-11-28T17:48:02.228Z,20.53
2018-11-28T17:50:31.348Z,22.90
2018-11-28T17:53:07.406Z,19.53
2018-11-28T17:55:39.782Z,20.40
2018-11-28T17:58:08.642Z,17.70
2018-11-28T18:00:37.559Z,29.13
2018-11-28T18:03:06.540Z,19.93
2018-11-28T18:05:35.612Z,20.57
2018-11-28T18:08:04.667Z,22.70
2018-11-28T18:10:33.588Z,21.23
2018-11-28T18:13:08.774Z,25.27
2018-11-28T18:15:38.042Z,24.07
2018-11-28T18:18:09.050Z,23.80
2018-11-28T18:20:37.892Z,20.67
2018-11-28T18:23:09.338Z,26.93
2018-11-28T18:25:39.106Z,21.33
2018-11-28T18:28:08.983Z,20.33
2018-11-28T18:30:39.823Z,22.80
2018-11-28T18:33:10.437Z,19.63
2018-11-28T18:35:39.653Z,25.93
2018-11-28T18:38:08.910Z,17.30
2018-11-28T18:40:38.777Z,19.63
2018-11-28T18:43:09.200Z,20.70
2018-11-28T18:45:40.952Z,19.00
2018-11-28T18:48:10.158Z,24.47
2018-11-28T18:50:39.553Z,27.00
2018-11-28T18:53:10.707Z,22.40
2018-11-28T18:55:41.642Z,23.80
2018-11-28T18:58:13.517Z,20.50
2018-11-28T19:00:42.521Z,20.70
2018-11-28T19:03:12.100Z,19.37
2018-11-28T19:05:42.187Z,22.10
2018-11-28T19:08:13.556Z,21.73
2018-11-28T19:10:43.214Z,29.23
2018-11-28T19:13:12.668Z,21.53
2018-11-28T19:15:42.345Z,21.20
2018-11-28T19:18:11.235Z,23.43
2018-11-28T19:20:40.181Z,24.93
2018-11-28T19:23:09.608Z,28.67
2018-11-28T19:25:38.523Z,21.10
2018-11-28T19:28:07.527Z,27.87
2018-11-28T19:30:41.712Z,22.30
2018-11-28T19:33:13.176Z,26.90
2018-11-28T19:35:42.687Z,28.87
2018-11-28T19:38:13.489Z,28.20
2018-11-28T19:40:51.915Z,39.10
2018-11-28T19:43:21.633Z,31.93
2018-11-28T19:45:51.157Z,37.73
2018-11-28T19:48:20.654Z,41.83
2018-11-28T19:50:49.568Z,38.23
2018-11-28T19:53:18.922Z,54.90
2018-11-28T19:55:47.898Z,44.07
2018-11-28T19:58:17.157Z,39.03
2018-11-28T20:00:46.997Z,47.40
2018-11-28T20:03:15.985Z,35.90
2018-11-28T20:05:44.983Z,41.70
2018-11-28T20:08:14.356Z,29.20
2018-11-28T20:10:43.604Z,34.27
2018-11-28T20:13:12.632Z,31.57
2018-11-28T20:15:43.969Z,35.57
2018-11-28T20:18:13.415Z,44.97
2018-11-28T20:20:43.032Z,45.70
2018-11-28T20:23:13.100Z,33.57
2018-11-28T20:25:42.433Z,33.20
2018-11-28T20:28:12.138Z,37.93
2018-11-28T20:30:46.028Z,33.57
2018-11-28T20:33:16.410Z,45.73
2018-11-28T20:35:48.358Z,40.57
2018-11-28T20:38:27.603Z,36.20
2018-11-28T20:40:56.695Z,43.00
2018-11-28T20:43:26.491Z,44.90
2018-11-28T20:45:55.905Z,40.57
2018-11-28T20:48:25.269Z,40.43
2018-11-28T20:50:54.463Z,42.90
2018-11-28T20:53:24.321Z,42.60
2018-11-28T20:55:53.661Z,39.03
2018-11-28T20:58:23.124Z,64.30
2018-11-28T21:00:52.625Z,40.57
2018-11-28T21:03:22.131Z,37.20
2018-11-28T21:05:51.595Z,42.57
2018-11-28T21:08:21.216Z,40.13
2018-11-28T21:10:50.498Z,41.43
2018-11-28T21:13:19.876Z,40.27
2018-11-28T21:15:48.984Z,44.93
2018-11-28T21:18:18.920Z,43.27
2018-11-28T21:20:48.149Z,52.27
2018-11-28T21:23:19.334Z,44.47
2018-11-28T21:25:49.104Z,50.83
2018-11-28T21:28:17.954Z,55.53
2018-11-28T21:30:46.970Z,50.67
2018-11-28T21:33:16.072Z,52.60
2018-11-28T21:35:51.991Z,50.47
2018-11-28T21:38:21.044Z,66.20
2018-11-28T21:40:50.479Z,52.13
2018-11-28T21:43:19.369Z,57.77
2018-11-28T21:45:49.214Z,57.10
2018-11-28T21:48:18.303Z,50.93
2018-11-28T21:50:47.826Z,63.60
2018-11-28T21:53:17.235Z,55.00
2018-11-28T21:55:46.136Z,53.93
2018-11-28T21:58:15.354Z,59.77
2018-11-28T22:00:53.087Z,55.53
2018-11-28T22:03:21.950Z,51.17
2018-11-28T22:05:51.421Z,58.93
2018-11-28T22:08:21.414Z,66.77
2018-11-28T22:10:50.722Z,55.60
2018-11-28T22:13:19.905Z,55.67
2018-11-28T22:15:49.190Z,56.80
2018-11-28T22:18:18.549Z,63.73
2018-11-28T22:20:47.910Z,56.53
2018-11-28T22:23:17.001Z,51.63
2018-11-28T22:25:46.148Z,56.93
2018-11-28T22:28:15.301Z,58.57
2018-11-28T22:30:44.635Z,59.83
2018-11-28T22:33:13.710Z,59.10
2018-11-28T22:35:43.109Z,58.60
2018-11-28T22:38:12.439Z,55.07
2018-11-28T22:40:41.811Z,66.03
2018-11-28T22:43:11.018Z,62.17
2018-11-28T22:45:40.225Z,55.37
2018-11-28T22:48:09.292Z,48.47
2018-11-28T22:50:38.298Z,49.80
2018-11-28T22:53:07.319Z,52.60
2018-11-28T22:55:36.258Z,55.37
2018-11-28T22:58:05.179Z,60.10
2018-11-28T23:00:39.273Z,53.67
2018-11-28T23:03:09.854Z,55.87
2018-11-28T23:05:45.007Z,53.03
2018-11-28T23:08:15.827Z,62.03
2018-11-28T23:10:45.164Z,60.73
2018-11-28T23:13:15.158Z,52.93
2018-11-28T23:15:44.112Z,65.97
2018-11-28T23:18:13.345Z,60.43
2018-11-28T23:20:43.375Z,63.73
2018-11-28T23:23:12.378Z,57.17
2018-11-28T23:25:41.221Z,61.00
2018-11-28T23:28:10.300Z,63.67
2018-11-28T23:30:39.591Z,53.77
2018-11-28T23:33:09.275Z,60.87
2018-11-28T23:35:38.400Z,59.30
2018-11-28T23:38:07.988Z,64.20
2018-11-28T23:40:36.849Z,65.20
2018-11-28T23:43:06.096Z,60.47
2018-11-28T23:45:36.630Z,55.57
2018-11-28T23:48:05.789Z,67.50
2018-11-28T23:50:34.581Z,62.90
2018-11-28T23:53:03.762Z,57.20
2018-11-28T23:55:33.052Z,65.47
2018-11-28T23:58:01.897Z,61.27
